Time;durP1;ratioP1;P1;durP2;ratioP2;P2;SDS_P1;SDS_P2;PMS_P1;PMS_P2;Temp;Humidity;BMP_temperature;BMP_pressure;BME280_temperature;BME280_humidity;BME280_pressure;Samples;Min_cycle;Max_cycle;Signal;HPM_P1;HPM_P2
2023/05/22 00:01:03;;;;;;;6.03;4.30;;;21.10;75.40;;;;;;5031492;28;20036;-70
2023/05/22 00:03:29;;;;;;;5.95;3.50;;;21.10;75.50;;;;;;5031772;28;20116;-70
2023/05/22 00:05:57;;;;;;;7.15;4.20;;;21.10;75.50;;;;;;5029540;28;20112;-70
2023/05/22 00:08:25;;;;;;;6.80;3.47;;;21.10;75.60;;;;;;5030101;28;20033;-70
2023/05/22 00:10:51;;;;;;;6.57;3.22;;;21.10;75.70;;;;;;5030242;28;20028;-70
2023/05/22 00:13:16;;;;;;;5.75;3.70;;;21.00;75.60;;;;;;5028205;28;20409;-76
2023/05/22 00:15:42;;;;;;;6.55;4.10;;;21.00;75.60;;;;;;5030300;28;20042;-70
2023/05/22 00:18:08;;;;;;;5.10;3.53;;;21.00;75.70;;;;;;5030332;28;20044;-69
2023/05/22 00:20:37;;;;;;;5.55;3.85;;;21.00;75.70;;;;;;5030701;28;20057;-69
2023/05/22 00:23:03;;;;;;;6.47;3.92;;;21.00;75.70;;;;;;5031439;28;20124;-69
2023/05/22 00:25:29;;;;;;;6.47;3.55;;;20.90;75.80;;;;;;5033745;28;20488;-68
2023/05/22 00:27:55;;;;;;;7.13;4.20;;;20.90;76.00;;;;;;5041469;28;20025;-68
2023/05/22 00:30:20;;;;;;;6.47;3.72;;;20.90;76.30;;;;;;5044364;28;20025;-74
2023/05/22 00:32:46;;;;;;;7.38;4.13;;;20.80;76.20;;;;;;5038898;28;20554;-76
2023/05/22 00:35:12;;;;;;;6.00;3.30;;;20.80;76.30;;;;;;5038028;28;20037;-75
2023/05/22 00:37:38;;;;;;;8.98;4.32;;;20.90;76.20;;;;;;5038265;28;20033;-68
2023/05/22 00:40:04;;;;;;;6.28;4.30;;;20.80;76.30;;;;;;5035610;28;20107;-68
2023/05/22 00:42:30;;;;;;;6.22;4.45;;;20.80;76.50;;;;;;5036960;28;20033;-69
2023/05/22 00:44:56;;;;;;;5.25;4.00;;;20.80;76.40;;;;;;5031640;28;20029;-68
2023/05/22 00:47:22;;;;;;;9.60;4.50;;;20.80;76.40;;;;;;5029658;28;20096;-75
2023/05/22 00:49:48;;;;;;;4.93;3.30;;;20.70;76.70;;;;;;5024501;28;20045;-74
2023/05/22 00:52:16;;;;;;;6.38;3.50;;;20.60;76.60;;;;;;5024028;28;20073;-68
2023/05/22 00:54:42;;;;;;;5.45;3.70;;;20.60;76.50;;;;;;5028736;28;20029;-68
2023/05/22 00:57:08;;;;;;;6.10;3.75;;;20.60;76.60;;;;;;5033964;28;20068;-68
2023/05/22 00:59:35;;;;;;;6.35;4.30;;;20.50;76.70;;;;;;5029348;28;20594;-68
2023/05/22 01:02:01;;;;;;;5.13;3.22;;;20.40;77.00;;;;;;5014459;28;20048;-68
2023/05/22 01:04:31;;;;;;;7.63;3.50;;;20.30;77.10;;;;;;5032128;28;20373;-69
2023/05/22 01:06:57;;;;;;;8.93;3.67;;;20.30;77.10;;;;;;5028607;28;20034;-68
2023/05/22 01:09:23;;;;;;;6.00;3.30;;;20.20;77.00;;;;;;5025045;28;20022;-68
2023/05/22 01:12:14;;;;;;;4.05;2.70;;;20.30;77.00;;;;;;5004131;28;20479;-68
2023/05/22 01:14:54;;;;;;;5.65;4.13;;;20.30;76.80;;;;;;5025950;28;20048;-69
2023/05/22 01:17:33;;;;;;;5.90;3.25;;;20.20;76.90;;;;;;5027780;28;20516;-69
2023/05/22 01:20:22;;;;;;;5.72;3.67;;;20.20;76.80;;;;;;5026549;28;20041;-69
2023/05/22 01:23:15;;;;;;;7.28;3.58;;;20.20;76.90;;;;;;5024153;28;20029;-69
2023/05/22 01:26:01;;;;;;;7.88;4.22;;;20.20;77.00;;;;;;5025157;28;20108;-69
2023/05/22 01:28:45;;;;;;;4.78;3.28;;;20.10;77.00;;;;;;5022349;28;20562;-69
2023/05/22 01:31:14;;;;;;;4.45;3.03;;;20.10;77.10;;;;;;5017497;28;20029;-69
2023/05/22 01:33:46;;;;;;;4.68;2.95;;;20.10;77.20;;;;;;5015449;28;20026;-69
2023/05/22 01:36:18;;;;;;;5.07;3.50;;;20.10;77.20;;;;;;5027997;28;20045;-69
2023/05/22 01:38:45;;;;;;;4.63;2.75;;;20.10;77.30;;;;;;5018435;28;20059;-69
2023/05/22 01:41:12;;;;;;;6.07;3.63;;;20.10;77.30;;;;;;5028004;28;20547;-69
2023/05/22 01:43:38;;;;;;;5.53;3.25;;;20.00;77.40;;;;;;5001645;28;20026;-74
2023/05/22 01:46:05;;;;;;;6.20;3.63;;;20.00;77.50;;;;;;5022902;28;20034;-69
2023/05/22 01:48:31;;;;;;;6.10;3.33;;;20.10;77.50;;;;;;5021529;28;20026;-68
2023/05/22 01:51:06;;;;;;;6.50;3.40;;;20.10;77.40;;;;;;5028093;28;20076;-69
2023/05/22 01:53:38;;;;;;;6.22;3.30;;;20.10;77.40;;;;;;5029270;28;20032;-69
2023/05/22 01:56:14;;;;;;;6.20;3.70;;;20.10;77.60;;;;;;5020048;28;20049;-69
2023/05/22 01:58:51;;;;;;;8.00;3.47;;;20.10;77.60;;;;;;5031119;28;20523;-68
2023/05/22 02:01:19;;;;;;;5.45;3.65;;;20.00;77.80;;;;;;5028553;28;20036;-69
2023/05/22 02:03:50;;;;;;;5.68;2.97;;;19.90;77.80;;;;;;5039897;28;20026;-69
2023/05/22 02:06:17;;;;;;;4.43;2.72;;;19.90;77.80;;;;;;5036670;28;20017;-69
2023/05/22 02:08:43;;;;;;;4.85;3.10;;;19.90;77.80;;;;;;5033803;28;20025;-68
2023/05/22 02:11:11;;;;;;;5.13;3.20;;;19.80;77.70;;;;;;5035940;28;20029;-75
2023/05/22 02:13:40;;;;;;;4.60;3.38;;;19.80;77.60;;;;;;5036427;28;20056;-76
2023/05/22 02:16:05;;;;;;;5.85;2.95;;;19.80;78.00;;;;;;4999867;28;20049;-75
2023/05/22 02:18:31;;;;;;;5.80;3.65;;;19.80;77.50;;;;;;5034031;28;20060;-76
2023/05/22 02:20:58;;;;;;;6.68;3.83;;;19.70;77.50;;;;;;5029200;28;20070;-74
2023/05/22 02:23:24;;;;;;;5.53;3.13;;;19.70;77.50;;;;;;5031470;28;20026;-67
2023/05/22 02:25:50;;;;;;;5.50;3.35;;;19.60;77.60;;;;;;5031934;28;20029;-74
2023/05/22 02:28:16;;;;;;;4.65;2.95;;;19.60;77.70;;;;;;5029849;28;20080;-68
2023/05/22 02:30:41;;;;;;;6.75;3.67;;;19.60;77.70;;;;;;5031504;28;20040;-67
2023/05/22 02:33:08;;;;;;;3.38;2.53;;;19.60;77.70;;;;;;5030469;28;20088;-68
2023/05/22 02:35:34;;;;;;;4.53;3.05;;;19.50;77.70;;;;;;5029678;28;20480;-68
2023/05/22 02:38:00;;;;;;;5.05;2.80;;;19.50;77.80;;;;;;5032263;28;20034;-68
2023/05/22 02:40:26;;;;;;;4.65;2.90;;;19.50;77.90;;;;;;5014858;28;20036;-67
2023/05/22 02:42:51;;;;;;;4.68;3.45;;;19.50;77.80;;;;;;5032260;28;20037;-68
2023/05/22 02:45:18;;;;;;;4.47;3.47;;;19.40;77.90;;;;;;5031832;28;20091;-68
2023/05/22 02:47:43;;;;;;;5.10;3.38;;;19.40;77.90;;;;;;5030188;28;20022;-68
2023/05/22 02:50:09;;;;;;;6.13;3.53;;;19.40;77.80;;;;;;5043573;28;20040;-67
2023/05/22 02:52:35;;;;;;;5.20;3.40;;;19.50;77.80;;;;;;5033562;28;20063;-68
2023/05/22 02:55:03;;;;;;;4.90;3.30;;;19.50;77.80;;;;;;5034623;28;20017;-69
2023/05/22 02:57:29;;;;;;;13.07;3.88;;;19.50;77.60;;;;;;5035788;28;20032;-75
2023/05/22 02:59:56;;;;;;;6.15;3.03;;;19.40;77.60;;;;;;5041259;28;20380;-75
2023/05/22 03:02:24;;;;;;;5.55;3.35;;;19.40;77.70;;;;;;5031245;28;20025;-75
2023/05/22 03:04:50;;;;;;;4.32;3.10;;;19.30;77.70;;;;;;5031758;28;20112;-75
2023/05/22 03:07:15;;;;;;;5.00;2.88;;;19.30;77.80;;;;;;5040948;28;20431;-75
2023/05/22 03:09:41;;;;;;;5.40;3.30;;;19.30;77.80;;;;;;5037908;28;20026;-75
2023/05/22 03:12:07;;;;;;;6.03;3.53;;;19.30;77.80;;;;;;5036843;28;20068;-68
2023/05/22 03:14:33;;;;;;;5.03;3.40;;;19.20;77.80;;;;;;5037778;28;20048;-68
2023/05/22 03:16:59;;;;;;;4.82;2.95;;;19.30;77.90;;;;;;5043351;28;20028;-68
2023/05/22 03:19:25;;;;;;;4.50;2.92;;;19.20;78.10;;;;;;5036606;28;20132;-68
2023/05/22 03:21:51;;;;;;;5.97;3.35;;;19.20;78.10;;;;;;5036297;28;20025;-68
2023/05/22 03:24:17;;;;;;;5.13;3.45;;;19.20;78.00;;;;;;5040460;28;20093;-68
2023/05/22 03:26:42;;;;;;;5.43;3.50;;;19.10;77.70;;;;;;5031047;28;20021;-68
2023/05/22 03:29:08;;;;;;;4.47;2.90;;;19.10;77.60;;;;;;5029663;28;20033;-68
2023/05/22 03:31:34;;;;;;;4.82;3.10;;;19.10;77.60;;;;;;5030554;28;20025;-75
2023/05/22 03:34:00;;;;;;;4.50;3.08;;;19.10;77.60;;;;;;5027322;28;20030;-75
2023/05/22 03:36:26;;;;;;;6.63;2.97;;;19.10;77.60;;;;;;5027584;28;20087;-74
2023/05/22 03:38:52;;;;;;;5.10;2.88;;;19.10;77.50;;;;;;5022777;28;20033;-74
2023/05/22 03:41:18;;;;;;;4.32;2.80;;;19.10;77.60;;;;;;5028754;28;20029;-74
2023/05/22 03:43:44;;;;;;;4.72;3.03;;;19.00;77.50;;;;;;5023073;28;20033;-74
2023/05/22 03:46:10;;;;;;;6.30;3.63;;;19.00;77.50;;;;;;5022714;28;20018;-74
2023/05/22 03:48:36;;;;;;;5.55;3.20;;;19.00;77.50;;;;;;5031697;28;20025;-75
2023/05/22 03:51:02;;;;;;;4.30;3.08;;;19.00;77.60;;;;;;5033884;28;20403;-74
2023/05/22 03:53:28;;;;;;;3.95;2.53;;;19.00;77.70;;;;;;5025666;28;20033;-75
2023/05/22 03:55:56;;;;;;;4.15;2.55;;;19.00;77.70;;;;;;5021146;28;20124;-75
2023/05/22 03:58:24;;;;;;;4.30;2.83;;;18.90;77.60;;;;;;5030274;28;20025;-75
2023/05/22 04:00:59;;;;;;;5.35;3.00;;;18.90;77.60;;;;;;5039399;28;20396;-75
2023/05/22 04:03:26;;;;;;;6.00;3.20;;;18.90;77.50;;;;;;5035114;28;20045;-75
2023/05/22 04:05:52;;;;;;;3.88;3.25;;;18.90;77.50;;;;;;5038675;28;20100;-74
2023/05/22 04:08:17;;;;;;;5.25;3.65;;;18.80;77.50;;;;;;5035678;28;20167;-74
2023/05/22 04:10:45;;;;;;;4.07;2.70;;;18.80;77.60;;;;;;5037875;28;20021;-74
2023/05/22 04:13:15;;;;;;;6.68;3.67;;;18.80;77.60;;;;;;5035548;28;20373;-74
2023/05/22 04:15:42;;;;;;;6.85;3.47;;;18.80;77.70;;;;;;5035117;28;20025;-74
2023/05/22 04:18:08;;;;;;;4.75;3.03;;;18.80;77.80;;;;;;5037368;28;20124;-74
2023/05/22 04:20:33;;;;;;;4.30;3.22;;;18.80;77.80;;;;;;5033984;28;20480;-68
2023/05/22 04:22:59;;;;;;;5.00;3.60;;;18.80;77.90;;;;;;5038854;28;20132;-68
2023/05/22 04:25:25;;;;;;;5.53;3.85;;;18.80;78.00;;;;;;5040030;28;20026;-68
2023/05/22 04:27:51;;;;;;;5.85;3.55;;;18.80;78.10;;;;;;5036291;28;20035;-68
2023/05/22 04:30:17;;;;;;;4.38;2.92;;;18.80;78.20;;;;;;5037945;28;20087;-68
2023/05/22 04:32:43;;;;;;;5.15;3.30;;;18.80;78.10;;;;;;5034271;28;20460;-68
2023/05/22 04:35:11;;;;;;;6.65;3.08;;;18.80;78.10;;;;;;5042369;28;20100;-68
2023/05/22 04:37:39;;;;;;;6.15;4.10;;;18.70;78.00;;;;;;5036451;28;20974;-67
2023/05/22 04:40:07;;;;;;;6.13;4.00;;;18.70;78.10;;;;;;5034292;28;20112;-67
2023/05/22 04:42:33;;;;;;;5.47;3.40;;;18.70;78.20;;;;;;5038054;28;20022;-67
2023/05/22 04:44:59;;;;;;;5.28;3.38;;;18.70;78.20;;;;;;5029810;28;20037;-74
2023/05/22 04:47:27;;;;;;;4.38;2.92;;;18.70;78.30;;;;;;5035319;28;20380;-74
2023/05/22 04:49:53;;;;;;;5.65;3.47;;;18.70;78.30;;;;;;5039031;28;20021;-74
2023/05/22 04:52:20;;;;;;;5.00;3.60;;;18.70;78.30;;;;;;5029124;28;20512;-74
2023/05/22 04:54:45;;;;;;;7.97;4.28;;;18.60;78.20;;;;;;5035419;28;20029;-67
2023/05/22 04:57:11;;;;;;;4.85;3.63;;;18.60;78.40;;;;;;5033916;28;20090;-74
2023/05/22 04:59:37;;;;;;;4.20;3.17;;;18.60;78.50;;;;;;5028852;28;20031;-74
2023/05/22 05:02:04;;;;;;;5.35;3.38;;;18.70;78.40;;;;;;5027828;28;20041;-75
2023/05/22 05:04:29;;;;;;;4.93;3.05;;;18.70;78.90;;;;;;5014396;28;20037;-75
2023/05/22 05:06:56;;;;;;;4.10;2.80;;;18.70;78.20;;;;;;5032870;28;20439;-74
2023/05/22 05:09:22;;;;;;;3.33;2.42;;;18.70;78.20;;;;;;5027425;28;20071;-75
2023/05/22 05:11:49;;;;;;;3.92;2.50;;;18.70;78.30;;;;;;5031431;28;20032;-68
2023/05/22 05:14:15;;;;;;;4.22;2.88;;;18.80;78.30;;;;;;5030401;28;20041;-68
2023/05/22 05:16:41;;;;;;;4.32;2.90;;;18.80;78.20;;;;;;5022729;28;20634;-75
2023/05/22 05:19:08;;;;;;;5.60;3.50;;;18.80;78.10;;;;;;5011104;28;20136;-67
2023/05/22 05:21:33;;;;;;;4.95;3.25;;;18.90;78.00;;;;;;5029443;28;20041;-68
2023/05/22 05:23:59;;;;;;;4.05;2.90;;;18.90;78.10;;;;;;5027418;28;20116;-68
2023/05/22 05:26:26;;;;;;;4.82;3.50;;;18.80;78.20;;;;;;5012916;28;20515;-67
2023/05/22 05:28:52;;;;;;;5.07;2.97;;;18.80;78.40;;;;;;5028604;28;20120;-75
2023/05/22 05:31:19;;;;;;;3.78;2.65;;;18.70;78.30;;;;;;5030792;28;20357;-75
2023/05/22 05:33:45;;;;;;;4.93;3.50;;;18.70;78.20;;;;;;5025864;28;20021;-75
2023/05/22 05:36:11;;;;;;;5.07;3.55;;;18.70;78.20;;;;;;5026120;28;20048;-75
2023/05/22 05:38:36;;;;;;;4.40;3.15;;;18.60;78.30;;;;;;5020475;28;20032;-67
2023/05/22 05:41:02;;;;;;;5.78;3.13;;;18.50;78.30;;;;;;5031176;28;20026;-67
2023/05/22 05:43:28;;;;;;;4.75;3.22;;;18.50;78.40;;;;;;5028427;28;20437;-67
2023/05/22 05:45:53;;;;;;;4.72;3.22;;;18.50;78.50;;;;;;5030408;28;20044;-67
2023/05/22 05:48:19;;;;;;;4.38;2.80;;;18.40;78.60;;;;;;5030230;28;20075;-68
2023/05/22 05:50:45;;;;;;;4.35;3.35;;;18.40;78.80;;;;;;5035832;28;20457;-67
2023/05/22 05:53:11;;;;;;;5.70;3.33;;;18.40;78.80;;;;;;5028688;28;20079;-67
2023/05/22 05:55:37;;;;;;;3.45;2.53;;;18.40;78.80;;;;;;5030344;28;20059;-67
2023/05/22 05:58:02;;;;;;;5.43;3.65;;;18.40;78.80;;;;;;5032509;28;20120;-67
2023/05/22 06:00:28;;;;;;;11.15;3.47;;;18.40;79.10;;;;;;5030410;28;20057;-67
2023/05/22 06:02:54;;;;;;;3.83;3.05;;;18.50;79.10;;;;;;5030091;28;20030;-67
2023/05/22 06:05:21;;;;;;;3.70;2.78;;;18.40;79.10;;;;;;5022846;28;20029;-68
2023/05/22 06:07:47;;;;;;;4.78;2.83;;;18.50;79.10;;;;;;5016537;28;20022;-67
2023/05/22 06:10:13;;;;;;;6.78;4.25;;;18.60;79.00;;;;;;5029677;28;20385;-67
2023/05/22 06:12:39;;;;;;;5.57;3.58;;;18.70;79.10;;;;;;5021630;28;20026;-67
2023/05/22 06:15:06;;;;;;;5.60;3.58;;;18.70;79.00;;;;;;5028354;28;20036;-68
2023/05/22 06:17:32;;;;;;;5.45;3.67;;;18.80;79.00;;;;;;5018065;28;20033;-67
2023/05/22 06:19:58;;;;;;;4.97;3.35;;;18.80;78.90;;;;;;5019666;28;20021;-67
2023/05/22 06:22:25;;;;;;;3.45;2.60;;;18.80;79.00;;;;;;5033394;28;20451;-74
2023/05/22 06:24:53;;;;;;;4.28;2.78;;;18.90;79.10;;;;;;5030341;28;20028;-75
2023/05/22 06:27:21;;;;;;;5.47;3.90;;;19.00;79.10;;;;;;5023436;28;20137;-75
2023/05/22 06:29:47;;;;;;;7.40;3.92;;;19.00;79.10;;;;;;5019711;28;20022;-75
2023/05/22 06:32:13;;;;;;;6.80;3.92;;;19.00;79.30;;;;;;5033525;28;20041;-75
2023/05/22 06:34:39;;;;;;;7.45;4.35;;;19.00;79.50;;;;;;5033520;28;20037;-75
2023/05/22 06:37:05;;;;;;;6.82;3.50;;;19.00;79.60;;;;;;5038989;28;20025;-75
2023/05/22 06:39:31;;;;;;;5.78;4.00;;;19.10;79.80;;;;;;5039541;28;20028;-75
2023/05/22 06:41:57;;;;;;;5.78;3.75;;;19.20;79.70;;;;;;5047869;28;20487;-75
2023/05/22 06:44:24;;;;;;;6.03;4.00;;;19.20;79.50;;;;;;5034265;28;20025;-75
2023/05/22 06:46:51;;;;;;;4.78;3.08;;;19.40;79.40;;;;;;5020655;28;20061;-75
2023/05/22 06:49:17;;;;;;;7.03;4.57;;;19.50;79.20;;;;;;5013706;28;20021;-68
2023/05/22 06:51:43;;;;;;;5.93;3.97;;;19.50;79.10;;;;;;5031623;28;20541;-67
2023/05/22 06:54:11;;;;;;;6.90;4.32;;;19.60;79.30;;;;;;5034337;28;20029;-68
2023/05/22 06:56:37;;;;;;;5.50;3.30;;;19.60;79.30;;;;;;5024671;28;20423;-67
2023/05/22 06:59:03;;;;;;;6.85;4.38;;;19.80;79.30;;;;;;5027061;28;20034;-68
2023/05/22 07:01:28;;;;;;;6.00;4.03;;;19.90;79.00;;;;;;5028004;28;20094;-67
2023/05/22 07:03:59;;;;;;;5.57;3.40;;;20.00;79.00;;;;;;5023632;28;20045;-67
2023/05/22 07:06:25;;;;;;;3.72;2.85;;;20.00;78.90;;;;;;5021438;28;20018;-71
2023/05/22 07:08:50;;;;;;;5.13;3.33;;;20.10;78.90;;;;;;5009415;28;20034;-70
2023/05/22 07:11:16;;;;;;;5.20;3.35;;;20.20;78.80;;;;;;5031943;28;20108;-71
2023/05/22 07:13:41;;;;;;;5.95;3.63;;;20.20;78.30;;;;;;5031916;28;20049;-69
2023/05/22 07:16:07;;;;;;;5.57;4.00;;;20.30;78.40;;;;;;5032614;28;20029;-70
2023/05/22 07:18:33;;;;;;;5.25;3.90;;;20.30;78.40;;;;;;5033341;28;20029;-72
2023/05/22 07:20:58;;;;;;;6.78;3.28;;;20.40;78.40;;;;;;5041285;28;20087;-68
2023/05/22 07:23:24;;;;;;;4.30;3.00;;;20.50;78.40;;;;;;5032680;28;20393;-68
2023/05/22 07:25:50;;;;;;;7.30;4.18;;;20.60;78.10;;;;;;5032080;28;20032;-68
2023/05/22 07:28:19;;;;;;;5.47;3.95;;;20.60;78.20;;;;;;5029803;28;20105;-67
2023/05/22 07:30:44;;;;;;;5.78;2.80;;;20.70;78.30;;;;;;5035916;28;20175;-64
2023/05/22 07:33:10;;;;;;;6.00;3.50;;;20.70;78.10;;;;;;5032943;28;20093;-70
2023/05/22 07:35:36;;;;;;;6.85;4.18;;;20.80;78.00;;;;;;5032157;28;20022;-70
2023/05/22 07:38:02;;;;;;;4.43;3.10;;;20.90;78.00;;;;;;5020427;28;20492;-72
2023/05/22 07:40:28;;;;;;;4.85;3.15;;;21.00;77.80;;;;;;5037108;28;20030;-71
2023/05/22 07:42:54;;;;;;;5.03;3.22;;;21.20;77.70;;;;;;5037194;28;20040;-72
2023/05/22 07:45:20;;;;;;;5.47;3.75;;;21.30;77.50;;;;;;5037514;28;20460;-72
2023/05/22 07:47:45;;;;;;;5.15;2.63;;;21.40;77.30;;;;;;5028569;28;20428;-73
2023/05/22 07:50:11;;;;;;;8.75;4.00;;;21.40;77.90;;;;;;5032285;28;20037;-73
2023/05/22 07:52:37;;;;;;;6.72;3.90;;;21.60;77.20;;;;;;5028262;28;20415;-73
2023/05/22 07:55:03;;;;;;;8.75;5.15;;;21.60;77.10;;;;;;5029951;28;20036;-69
2023/05/22 07:57:29;;;;;;;5.13;4.00;;;21.70;77.00;;;;;;5027382;28;20036;-70
2023/05/22 07:59:55;;;;;;;7.63;4.60;;;21.70;76.90;;;;;;5031483;28;20472;-69
2023/05/22 08:02:21;;;;;;;8.18;4.10;;;21.70;77.00;;;;;;5032100;28;20025;-71
2023/05/22 08:04:47;;;;;;;4.32;2.85;;;21.80;77.00;;;;;;5011952;28;20030;-74
2023/05/22 08:07:13;;;;;;;6.18;3.63;;;21.80;77.00;;;;;;5027232;28;20036;-74
2023/05/22 08:09:39;;;;;;;4.40;2.97;;;22.00;76.90;;;;;;5027444;28;20465;-72
2023/05/22 08:12:06;;;;;;;6.25;3.33;;;22.10;76.80;;;;;;5027221;28;20033;-74
2023/05/22 08:14:31;;;;;;;5.50;3.45;;;22.30;76.50;;;;;;5025962;28;20056;-72
2023/05/22 08:16:57;;;;;;;6.15;3.35;;;22.40;76.20;;;;;;5012990;28;20030;-73
2023/05/22 08:19:24;;;;;;;7.85;3.83;;;22.50;75.90;;;;;;5026107;28;20040;-73
2023/05/22 08:21:51;;;;;;;5.22;3.25;;;22.70;75.70;;;;;;5032369;28;20026;-72
2023/05/22 08:24:17;;;;;;;6.90;2.97;;;22.80;75.60;;;;;;5030885;28;20041;-71
2023/05/22 08:26:43;;;;;;;4.97;2.90;;;22.80;75.40;;;;;;5027688;28;20528;-73
2023/05/22 08:29:09;;;;;;;5.35;3.33;;;23.00;75.20;;;;;;5005142;28;20492;-73
2023/05/22 08:31:35;;;;;;;5.00;3.28;;;23.10;75.10;;;;;;5020224;28;20034;-73
2023/05/22 08:34:05;;;;;;;5.28;2.75;;;23.20;74.90;;;;;;5033530;28;20036;-73
2023/05/22 08:36:32;;;;;;;4.97;2.88;;;23.30;74.70;;;;;;5026995;28;20026;-73
2023/05/22 08:38:58;;;;;;;4.57;3.20;;;23.40;74.70;;;;;;5029659;28;20095;-73
2023/05/22 08:41:24;;;;;;;5.40;3.60;;;23.60;74.30;;;;;;5032200;28;20480;-73
2023/05/22 08:43:50;;;;;;;3.83;2.65;;;23.70;74.10;;;;;;5034450;28;20114;-73
2023/05/22 08:46:18;;;;;;;4.95;3.05;;;23.70;73.90;;;;;;5034494;28;20071;-73
2023/05/22 08:48:46;;;;;;;4.32;2.75;;;23.80;73.70;;;;;;5029705;28;20028;-68
2023/05/22 08:51:17;;;;;;;3.72;2.72;;;24.00;73.60;;;;;;5018089;28;20798;-69
2023/05/22 08:53:44;;;;;;;5.15;3.28;;;24.20;73.10;;;;;;5023529;28;20108;-70
2023/05/22 08:56:10;;;;;;;3.85;2.90;;;24.30;72.10;;;;;;5015626;28;20046;-69
2023/05/22 08:58:36;;;;;;;4.72;3.55;;;24.30;71.60;;;;;;5016827;28;20061;-73
2023/05/22 09:01:04;;;;;;;2.97;2.40;;;24.40;71.20;;;;;;5001889;28;20022;-70
2023/05/22 09:03:33;;;;;;;6.55;2.88;;;24.50;70.90;;;;;;5014000;28;20034;-70
2023/05/22 09:05:59;;;;;;;5.13;3.00;;;24.60;70.60;;;;;;5029110;28;20116;-73
2023/05/22 09:08:25;;;;;;;6.20;3.13;;;24.70;70.00;;;;;;5030242;28;20025;-73
2023/05/22 09:10:51;;;;;;;4.60;2.83;;;24.80;69.90;;;;;;5031340;28;20100;-73
2023/05/22 09:13:30;;;;;;;3.90;2.55;;;24.80;69.80;;;;;;5030557;28;20095;-69
2023/05/22 09:16:06;;;;;;;3.05;2.42;;;24.80;69.70;;;;;;5031044;28;20025;-68
2023/05/22 09:18:32;;;;;;;4.03;2.78;;;24.90;69.60;;;;;;5029040;28;20018;-73
2023/05/22 09:20:58;;;;;;;4.30;2.33;;;24.90;69.30;;;;;;5030302;28;20030;-73
2023/05/22 09:23:27;;;;;;;3.78;2.85;;;25.10;68.60;;;;;;5030114;28;20065;-73
2023/05/22 09:25:57;;;;;;;2.67;2.05;;;25.20;68.30;;;;;;5030181;28;20037;-73
2023/05/22 09:28:23;;;;;;;3.58;2.75;;;25.30;68.10;;;;;;5029212;28;20043;-69
2023/05/22 09:30:50;;;;;;;2.92;2.25;;;25.50;67.70;;;;;;5029538;28;20469;-69
2023/05/22 09:33:17;;;;;;;3.55;2.40;;;25.70;67.40;;;;;;5029944;28;20033;-69
2023/05/22 09:35:44;;;;;;;3.75;2.35;;;25.80;66.80;;;;;;5026907;28;20091;-69
2023/05/22 09:38:10;;;;;;;2.90;2.17;;;25.90;66.60;;;;;;5028148;28;20100;-73
2023/05/22 09:40:40;;;;;;;3.65;2.10;;;26.00;66.60;;;;;;5026114;28;20029;-73
2023/05/22 09:43:09;;;;;;;2.70;2.10;;;26.20;67.10;;;;;;5027733;28;20026;-73
2023/05/22 09:45:36;;;;;;;4.05;2.33;;;26.40;65.80;;;;;;5026167;28;20531;-73
2023/05/22 09:48:07;;;;;;;4.32;3.17;;;26.50;65.70;;;;;;5026286;28;20071;-69
2023/05/22 09:50:33;;;;;;;4.30;2.20;;;26.40;65.30;;;;;;5027421;28;20068;-70
2023/05/22 09:53:03;;;;;;;6.47;2.53;;;26.20;65.00;;;;;;5031262;28;20029;-73
2023/05/22 09:55:30;;;;;;;2.95;2.10;;;26.10;65.30;;;;;;5025395;28;20184;-69
2023/05/22 09:57:58;;;;;;;4.70;2.30;;;25.90;65.60;;;;;;5029139;28;20037;-69
2023/05/22 10:00:25;;;;;;;3.85;2.42;;;25.70;65.90;;;;;;5029970;28;20021;-68
2023/05/22 10:03:04;;;;;;;4.10;2.75;;;25.50;65.90;;;;;;5029053;28;20113;-69
2023/05/22 10:05:31;;;;;;;2.72;2.05;;;25.60;65.90;;;;;;5027024;28;20096;-74
2023/05/22 10:08:06;;;;;;;2.40;2.08;;;25.80;65.50;;;;;;5026391;28;20503;-73
2023/05/22 10:10:34;;;;;;;2.70;1.85;;;26.10;64.70;;;;;;5030479;28;20477;-70
2023/05/22 10:13:04;;;;;;;3.58;2.85;;;26.30;64.30;;;;;;5030302;28;20133;-71
2023/05/22 10:15:30;;;;;;;3.05;2.28;;;26.30;63.90;;;;;;5024558;28;20149;-73
2023/05/22 10:17:57;;;;;;;3.30;2.50;;;26.30;64.00;;;;;;5029073;28;20036;-70
2023/05/22 10:20:25;;;;;;;3.83;2.50;;;26.20;64.00;;;;;;5025814;28;20026;-73
2023/05/22 10:22:53;;;;;;;3.20;2.25;;;26.10;64.40;;;;;;5028129;28;20488;-73
2023/05/22 10:25:22;;;;;;;3.55;2.30;;;26.00;64.70;;;;;;5027571;28;20075;-73
2023/05/22 10:27:51;;;;;;;3.88;2.38;;;25.90;65.10;;;;;;5027425;28;20529;-73
2023/05/22 10:30:37;;;;;;;3.28;2.42;;;25.80;64.80;;;;;;5028053;28;20030;-73
2023/05/22 10:33:06;;;;;;;13.45;3.38;;;25.80;64.70;;;;;;5017937;28;20056;-73
2023/05/22 10:35:42;;;;;;;4.82;3.15;;;25.60;63.80;;;;;;5026922;28;20991;-73
2023/05/22 10:38:29;;;;;;;4.22;2.90;;;25.60;64.00;;;;;;5024812;28;20397;-73
2023/05/22 10:40:55;;;;;;;3.50;2.72;;;25.60;64.20;;;;;;5023980;28;20030;-69
2023/05/22 10:43:21;;;;;;;3.88;3.08;;;25.80;64.30;;;;;;5011058;28;20084;-69
2023/05/22 10:45:47;;;;;;;2.67;2.17;;;26.20;64.00;;;;;;5027186;28;20506;-69
2023/05/22 10:48:13;;;;;;;3.50;2.30;;;26.50;63.50;;;;;;5028710;28;20025;-70
2023/05/22 10:50:48;;;;;;;4.45;3.00;;;26.80;63.00;;;;;;5011884;28;20044;-70
2023/05/22 10:53:25;;;;;;;4.38;2.80;;;27.10;62.30;;;;;;5020996;28;20041;-69
2023/05/22 10:55:53;;;;;;;2.67;2.10;;;27.30;62.10;;;;;;5027422;28;20060;-69
2023/05/22 10:58:29;;;;;;;3.38;2.10;;;27.60;61.40;;;;;;5024932;28;20034;-74
2023/05/22 11:01:24;;;;;;;3.92;2.78;;;27.70;61.10;;;;;;5019548;28;20744;-74
2023/05/22 11:03:53;;;;;;;4.85;3.17;;;27.80;59.70;;;;;;5019645;28;20061;-74
2023/05/22 11:06:37;;;;;;;3.30;2.25;;;27.80;59.00;;;;;;5028296;28;20041;-71
2023/05/22 11:09:30;;;;;;;2.90;2.28;;;27.80;59.10;;;;;;5023245;28;20034;-70
2023/05/22 11:12:29;;;;;;;4.40;2.95;;;27.70;59.40;;;;;;5020944;28;20068;-69
2023/05/22 11:15:05;;;;;;;3.65;2.60;;;27.60;59.00;;;;;;5020622;28;20076;-74
2023/05/22 11:17:45;;;;;;;3.60;2.83;;;27.60;59.20;;;;;;5023816;28;20401;-70
2023/05/22 11:20:21;;;;;;;6.38;3.17;;;27.70;58.50;;;;;;5026811;28;20413;-70
2023/05/22 11:23:02;;;;;;;4.20;3.10;;;27.50;58.20;;;;;;5030248;28;20037;-70
2023/05/22 11:25:28;;;;;;;4.87;2.87;;;27.50;58.50;;;;;;5027061;28;20377;-70
2023/05/22 11:27:54;;;;;;;6.60;3.17;;;27.60;58.20;;;;;;5029302;28;20302;-71
2023/05/22 11:30:24;;;;;;;3.88;3.00;;;27.70;56.90;;;;;;5024424;28;20048;-71
2023/05/22 11:32:51;;;;;;;4.13;2.67;;;27.80;57.40;;;;;;5028825;28;20050;-70
2023/05/22 11:35:21;;;;;;;3.47;2.50;;;28.00;57.50;;;;;;5028796;28;20022;-70
2023/05/22 11:37:48;;;;;;;4.93;2.67;;;28.10;57.90;;;;;;5021802;28;20029;-70
2023/05/22 11:40:16;;;;;;;2.40;2.15;;;28.00;57.50;;;;;;5027487;28;20045;-70
2023/05/22 11:42:42;;;;;;;3.33;2.22;;;27.80;57.70;;;;;;5023292;28;20481;-70
2023/05/22 11:45:08;;;;;;;3.03;2.70;;;27.70;58.00;;;;;;5028428;28;20519;-70
2023/05/22 11:47:35;;;;;;;3.75;2.65;;;27.50;58.20;;;;;;5029072;28;20025;-70
2023/05/22 11:50:00;;;;;;;3.13;2.75;;;27.30;58.40;;;;;;5029653;28;20032;-70
2023/05/22 11:52:32;;;;;;;3.80;2.38;;;27.30;58.10;;;;;;5029048;28;20650;-71
2023/05/22 11:54:58;;;;;;;4.38;2.58;;;27.20;58.00;;;;;;5034045;28;20044;-71
2023/05/22 11:57:24;;;;;;;2.88;2.60;;;27.20;58.20;;;;;;5025449;28;20052;-70
2023/05/22 11:59:50;;;;;;;4.55;3.17;;;27.20;58.00;;;;;;5030310;28;20542;-70
2023/05/22 12:02:17;;;;;;;3.03;2.60;;;27.10;58.00;;;;;;5028300;28;20104;-70
2023/05/22 12:04:42;;;;;;;3.83;2.50;;;27.10;58.30;;;;;;5013895;28;20052;-70
2023/05/22 12:07:08;;;;;;;3.88;2.95;;;26.90;58.90;;;;;;5034358;28;20013;-69
2023/05/22 12:09:37;;;;;;;3.20;2.58;;;26.90;59.70;;;;;;5021803;28;20021;-69
2023/05/22 12:12:02;;;;;;;2.83;2.33;;;26.70;60.40;;;;;;5032591;28;20104;-70
2023/05/22 12:14:32;;;;;;;2.75;2.10;;;26.60;61.30;;;;;;5028782;28;20133;-69
2023/05/22 12:16:59;;;;;;;3.47;2.58;;;26.60;62.10;;;;;;5031682;28;20096;-69
2023/05/22 12:19:25;;;;;;;3.85;2.50;;;26.50;62.70;;;;;;5023548;28;20026;-73
2023/05/22 12:21:52;;;;;;;2.42;2.22;;;26.60;62.70;;;;;;5030519;28;20037;-73
2023/05/22 12:24:23;;;;;;;4.22;3.13;;;26.90;62.90;;;;;;5025948;28;20574;-73
2023/05/22 12:26:52;;;;;;;2.38;1.83;;;27.20;62.30;;;;;;5035172;28;20133;-73
2023/05/22 12:29:22;;;;;;;3.70;2.50;;;27.60;62.00;;;;;;5026003;28;20034;-73
2023/05/22 12:31:48;;;;;;;4.47;3.15;;;27.90;62.30;;;;;;5028338;28;20105;-73
2023/05/22 12:34:17;;;;;;;3.47;2.63;;;28.10;61.60;;;;;;5026802;28;20108;-70
2023/05/22 12:36:45;;;;;;;2.97;2.50;;;28.40;60.80;;;;;;5026647;28;20128;-70
2023/05/22 12:39:21;;;;;;;3.20;2.40;;;28.40;60.00;;;;;;5035366;28;20033;-70
2023/05/22 12:41:46;;;;;;;3.88;2.63;;;28.20;59.80;;;;;;5035763;28;20476;-70
2023/05/22 12:44:15;;;;;;;3.13;2.60;;;28.00;59.60;;;;;;5014913;28;20025;-70
2023/05/22 12:46:41;;;;;;;2.80;2.00;;;27.70;59.50;;;;;;5025487;28;20033;-70
2023/05/22 12:49:10;;;;;;;4.30;2.63;;;27.50;59.80;;;;;;5029533;28;20029;-70